createdAt,value
2022-09-12T00:00:53.742Z,7.22
2022-09-12T00:04:58.272Z,7.47
2022-09-12T00:09:07.436Z,7.97
2022-09-12T00:13:11.567Z,8.95
2022-09-12T00:17:13.046Z,7.78
2022-09-12T00:21:15.875Z,7.53
2022-09-12T00:25:17.548Z,7.60
2022-09-12T00:29:21.024Z,7.30
2022-09-12T00:33:26.848Z,6.63
2022-09-12T00:37:28.254Z,7.55
2022-09-12T00:41:35.729Z,8.05
2022-09-12T00:45:37.452Z,7.75
2022-09-12T00:49:52.663Z,8.07
2022-09-12T00:53:55.343Z,6.75
2022-09-12T00:58:17.404Z,6.25
2022-09-12T01:02:21.991Z,7.28
2022-09-12T01:06:29.424Z,7.38
2022-09-12T01:10:33.647Z,6.70
2022-09-12T01:14:39.808Z,8.95
2022-09-12T01:19:09.219Z,8.30
2022-09-12T01:23:19.645Z,7.70
2022-09-12T01:27:30.194Z,7.20
2022-09-12T01:31:49.725Z,8.30
2022-09-12T01:36:03.138Z,7.28
2022-09-12T01:40:28.874Z,9.35
2022-09-12T01:45:14.840Z,8.00
2022-09-12T01:49:21.691Z,9.15
2022-09-12T01:53:27.382Z,8.43
2022-09-12T01:57:36.606Z,7.43
2022-09-12T02:01:45.616Z,9.20
2022-09-12T02:05:55.285Z,8.85
2022-09-12T02:10:00.719Z,7.57
2022-09-12T02:14:11.607Z,7.90
2022-09-12T02:18:14.698Z,8.13
2022-09-12T02:22:18.391Z,7.47
2022-09-12T02:26:32.000Z,7.05
2022-09-12T02:30:40.489Z,7.18
2022-09-12T02:35:01.663Z,8.30
2022-09-12T02:39:05.978Z,7.85
2022-09-12T02:43:09.734Z,7.47
2022-09-12T02:47:18.232Z,6.95
2022-09-12T02:51:23.688Z,7.50
2022-09-12T02:55:27.089Z,6.65
2022-09-12T02:59:28.577Z,7.45
2022-09-12T03:03:47.516Z,7.10
2022-09-12T03:08:15.177Z,7.70
2022-09-12T03:16:48.856Z,6.65
2022-09-12T03:21:42.026Z,6.90
2022-09-12T03:26:17.088Z,7.78
2022-09-12T03:30:18.967Z,7.72
2022-09-12T03:34:21.224Z,9.63
2022-09-12T03:38:26.027Z,8.00
2022-09-12T03:42:32.160Z,8.68
2022-09-12T03:46:35.623Z,8.20
2022-09-12T03:50:43.450Z,7.90
2022-09-12T03:58:47.630Z,8.00
2022-09-12T04:02:51.555Z,8.18
2022-09-12T04:06:53.008Z,7.72
2022-09-12T04:11:01.957Z,7.30
2022-09-12T04:15:03.669Z,7.43
2022-09-12T04:19:05.218Z,7.55
2022-09-12T04:23:06.636Z,7.88
2022-09-12T04:27:08.116Z,6.53
2022-09-12T04:31:14.522Z,7.07
2022-09-12T04:35:18.201Z,7.22
2022-09-12T04:39:19.787Z,7.25
2022-09-12T04:43:21.264Z,8.10
2022-09-12T04:47:25.402Z,7.63
2022-09-12T04:51:35.816Z,9.57
2022-09-12T04:55:37.416Z,9.40
2022-09-12T04:59:43.773Z,8.13
2022-09-12T05:03:48.798Z,8.48
2022-09-12T05:07:53.130Z,7.80
2022-09-12T05:12:10.197Z,7.50
2022-09-12T05:16:16.355Z,9.10
2022-09-12T05:20:24.139Z,7.40
2022-09-12T05:24:36.942Z,7.68
2022-09-12T05:29:18.491Z,7.75
2022-09-12T05:33:25.187Z,9.38
2022-09-12T05:37:38.141Z,8.93
2022-09-12T05:41:42.899Z,9.27
2022-09-12T05:45:47.621Z,10.52
2022-09-12T05:49:52.576Z,9.52
2022-09-12T05:53:59.670Z,10.52
2022-09-12T05:58:01.969Z,11.27
2022-09-12T06:02:03.496Z,11.45
2022-09-12T06:06:05.875Z,12.30
2022-09-12T06:10:07.607Z,12.43
2022-09-12T06:14:16.153Z,13.82
2022-09-12T06:18:17.553Z,14.25
2022-09-12T06:22:40.557Z,15.68
2022-09-12T06:27:42.958Z,15.60
2022-09-12T06:38:00.906Z,14.13
2022-09-12T06:53:22.226Z,11.05
2022-09-12T06:57:30.532Z,11.00
2022-09-12T07:01:35.301Z,9.82
2022-09-12T07:06:11.939Z,10.48
2022-09-12T07:26:01.694Z,8.55
2022-09-12T07:31:01.162Z,8.20
2022-09-12T07:35:35.976Z,8.23
2022-09-12T07:46:38.410Z,6.05
2022-09-12T07:51:09.867Z,5.70
2022-09-12T08:01:30.815Z,4.70
2022-09-12T08:15:08.181Z,5.75
2022-09-12T08:20:22.578Z,6.38
2022-09-12T08:24:24.155Z,6.25
2022-09-12T08:28:45.470Z,6.13
2022-09-12T08:32:56.924Z,5.90
2022-09-12T08:37:05.809Z,5.07
2022-09-12T08:41:50.937Z,6.40
2022-09-12T08:46:06.572Z,5.55
2022-09-12T08:50:15.396Z,4.28
2022-09-12T08:54:31.915Z,3.85
2022-09-12T08:58:57.002Z,3.17
2022-09-12T09:03:06.663Z,3.50
2022-09-12T09:08:01.909Z,3.15
2022-09-12T09:12:16.163Z,2.92
2022-09-12T09:17:06.034Z,2.45
2022-09-12T09:21:33.663Z,2.55
2022-09-12T09:25:54.229Z,2.78
2022-09-12T09:29:58.911Z,3.13
2022-09-12T09:34:10.745Z,2.42
2022-09-12T09:38:29.911Z,2.17
2022-09-12T09:43:03.146Z,2.03
2022-09-12T09:47:10.228Z,1.65
2022-09-12T09:51:18.589Z,1.95
2022-09-12T09:55:26.279Z,1.42
2022-09-12T09:59:44.677Z,1.92
2022-09-12T10:03:55.165Z,1.80
2022-09-12T10:08:00.209Z,2.08
2022-09-12T10:12:20.130Z,1.52
2022-09-12T10:16:23.890Z,1.63
2022-09-12T10:20:43.356Z,1.33
2022-09-12T10:24:50.147Z,1.70
2022-09-12T10:28:53.580Z,1.80
2022-09-12T10:32:58.959Z,1.35
2022-09-12T10:37:08.530Z,1.70
2022-09-12T10:41:12.531Z,1.70
2022-09-12T10:51:11.657Z,1.50
2022-09-12T11:00:08.701Z,1.20
2022-09-12T11:05:04.417Z,1.38
2022-09-12T11:09:35.848Z,1.60
2022-09-12T11:14:28.916Z,1.38
2022-09-12T11:18:39.844Z,1.33
2022-09-12T11:22:59.091Z,1.50
2022-09-12T11:27:40.412Z,1.40
2022-09-12T11:32:07.108Z,1.50
2022-09-12T11:36:17.595Z,1.50
2022-09-12T11:40:26.004Z,1.13
2022-09-12T11:44:28.795Z,0.98
2022-09-12T11:49:12.847Z,1.27
2022-09-12T11:53:22.288Z,1.08
2022-09-12T11:57:28.251Z,1.10
2022-09-12T12:01:41.320Z,1.45
2022-09-12T12:05:52.191Z,1.10
2022-09-12T12:09:55.818Z,0.80
2022-09-12T12:14:24.527Z,1.20
2022-09-12T12:18:31.949Z,1.15
2022-09-12T12:22:41.737Z,1.20
2022-09-12T12:27:06.623Z,1.20
2022-09-12T12:31:09.342Z,0.80
2022-09-12T12:35:53.021Z,0.80
2022-09-12T12:40:04.617Z,0.80
2022-09-12T12:44:44.690Z,0.65
2022-09-12T12:49:11.411Z,0.85
2022-09-12T12:53:25.170Z,0.60
2022-09-12T12:57:48.067Z,0.77
2022-09-12T13:01:55.328Z,0.65
2022-09-12T13:10:01.426Z,0.70
2022-09-12T13:14:27.345Z,0.68
2022-09-12T13:18:48.433Z,0.80
2022-09-12T13:22:52.092Z,0.90
2022-09-12T13:26:53.590Z,0.70
2022-09-12T13:30:59.615Z,0.70
2022-09-12T13:35:12.197Z,0.93
2022-09-12T13:39:35.689Z,0.70
2022-09-12T13:43:43.585Z,0.70
2022-09-12T13:47:47.101Z,0.50
2022-09-12T13:52:09.606Z,0.50
2022-09-12T13:56:17.306Z,0.52
2022-09-12T14:00:19.679Z,0.60
2022-09-12T14:04:42.255Z,0.80
2022-09-12T14:08:44.683Z,0.68
2022-09-12T14:12:50.782Z,0.57
2022-09-12T14:16:54.724Z,0.80
2022-09-12T14:21:14.910Z,0.77
2022-09-12T14:25:45.086Z,0.70
2022-09-12T14:29:47.558Z,0.90
2022-09-12T14:34:00.440Z,0.90
2022-09-12T14:38:25.198Z,0.90
2022-09-12T14:42:30.398Z,0.77
2022-09-12T14:46:38.851Z,0.93
2022-09-12T14:50:40.438Z,1.00
2022-09-12T14:54:43.784Z,0.70
2022-09-12T14:59:32.917Z,1.00
2022-09-12T15:03:37.697Z,0.75
2022-09-12T15:08:05.500Z,1.00
2022-09-12T15:12:12.136Z,0.80
2022-09-12T15:16:13.998Z,0.90
2022-09-12T15:20:15.570Z,0.80
2022-09-12T15:24:17.127Z,1.88
2022-09-12T15:28:20.860Z,1.45
2022-09-12T15:32:26.542Z,0.98
2022-09-12T15:36:28.896Z,1.00
2022-09-12T15:40:30.349Z,1.08
2022-09-12T15:44:31.800Z,0.68
2022-09-12T15:48:33.403Z,0.90
2022-09-12T15:52:34.822Z,1.00
2022-09-12T15:56:36.238Z,0.82
2022-09-12T16:00:37.735Z,0.95
2022-09-12T16:04:39.251Z,0.90
2022-09-12T16:08:41.015Z,0.90
2022-09-12T16:12:43.115Z,1.35
2022-09-12T16:16:45.200Z,1.00
2022-09-12T16:20:46.577Z,1.15
2022-09-12T16:24:47.923Z,1.10
2022-09-12T16:28:56.761Z,1.08
2022-09-12T16:32:58.132Z,0.95
2022-09-12T16:36:59.513Z,1.05
2022-09-12T16:41:05.507Z,1.10
2022-09-12T16:45:07.482Z,0.88
2022-09-12T16:49:10.950Z,0.93
2022-09-12T16:53:13.187Z,0.90
2022-09-12T16:57:14.579Z,1.10
2022-09-12T17:01:22.261Z,0.93
2022-09-12T17:05:24.219Z,1.10
2022-09-12T17:09:27.439Z,1.02
2022-09-12T17:13:46.913Z,1.13
2022-09-12T17:17:58.596Z,1.33
2022-09-12T17:22:00.120Z,1.10
2022-09-12T17:26:04.089Z,1.45
2022-09-12T17:30:06.228Z,1.70
2022-09-12T17:34:14.782Z,1.52
2022-09-12T17:38:22.161Z,1.33
2022-09-12T17:43:06.245Z,2.05
2022-09-12T17:47:37.741Z,1.63
2022-09-12T18:05:53.615Z,2.45
2022-09-12T18:09:57.286Z,1.63
2022-09-12T18:14:00.748Z,3.00
2022-09-12T18:18:04.749Z,4.30
2022-09-12T18:22:06.453Z,2.20
2022-09-12T18:26:09.847Z,1.90
2022-09-12T18:30:28.076Z,2.15
2022-09-12T18:34:37.636Z,1.70
2022-09-12T18:38:57.507Z,1.92
2022-09-12T18:43:09.047Z,1.80
2022-09-12T18:47:17.549Z,1.73
2022-09-12T18:51:36.142Z,1.95
2022-09-12T18:55:50.554Z,1.58
2022-09-12T19:00:02.025Z,1.70
2022-09-12T19:04:22.645Z,1.90
2022-09-12T19:08:24.117Z,1.85
2022-09-12T19:28:58.499Z,3.47
2022-09-12T19:33:14.611Z,3.35
2022-09-12T19:37:36.318Z,2.97
2022-09-12T19:41:41.581Z,2.80
2022-09-12T19:46:11.747Z,2.08
2022-09-12T19:50:28.600Z,1.90
2022-09-12T19:54:45.486Z,1.77
2022-09-12T19:58:57.009Z,1.70
2022-09-12T20:03:13.738Z,1.85
2022-09-12T20:08:01.018Z,1.47
2022-09-12T20:12:13.788Z,2.10
2022-09-12T20:16:41.636Z,1.00
2022-09-12T20:20:56.811Z,1.05
2022-09-12T20:25:01.717Z,1.83
2022-09-12T20:29:09.450Z,2.10
2022-09-12T20:38:10.639Z,2.00
2022-09-12T20:42:39.223Z,1.83
2022-09-12T20:47:04.592Z,2.08
2022-09-12T20:51:12.087Z,1.48
2022-09-12T20:55:22.962Z,1.45
2022-09-12T20:59:37.891Z,1.45
2022-09-12T21:03:53.567Z,1.35
2022-09-12T21:08:55.411Z,1.30
2022-09-12T21:13:06.644Z,1.65
2022-09-12T21:17:23.437Z,1.60
2022-09-12T21:21:35.158Z,2.00
2022-09-12T21:25:40.249Z,1.27
2022-09-12T21:29:44.634Z,1.80
2022-09-12T21:42:35.296Z,2.20
2022-09-12T21:46:48.692Z,1.90
2022-09-12T21:51:06.262Z,1.52
2022-09-12T21:55:32.501Z,1.60
2022-09-12T21:59:39.636Z,2.20
2022-09-12T22:03:45.468Z,1.88
2022-09-12T22:07:51.758Z,1.45
2022-09-12T22:11:56.105Z,1.77
2022-09-12T22:16:05.767Z,1.58
2022-09-12T22:20:16.667Z,2.15
2022-09-12T22:24:32.182Z,1.60
2022-09-12T22:28:39.664Z,1.42
2022-09-12T22:32:57.065Z,1.80
2022-09-12T22:37:11.487Z,1.40
2022-09-12T22:41:32.673Z,1.60
2022-09-12T22:50:06.717Z,1.77
2022-09-12T22:54:16.037Z,1.83
2022-09-12T22:58:22.906Z,1.55
2022-09-12T23:02:33.363Z,1.05
2022-09-12T23:06:49.562Z,1.80
2022-09-12T23:11:11.843Z,1.63
2022-09-12T23:15:20.119Z,1.98
2022-09-12T23:19:29.587Z,1.92
2022-09-12T23:23:40.922Z,1.60
2022-09-12T23:27:51.511Z,1.88
2022-09-12T23:32:03.505Z,1.48
2022-09-12T23:36:14.215Z,1.73
2022-09-12T23:40:23.076Z,2.03
2022-09-12T23:48:55.187Z,1.65
2022-09-12T23:53:00.281Z,1.13
2022-09-12T23:57:07.946Z,1.20
